METAR Reports for Virginia

 

KIAD - Wash DC/Dulles, Virginia, USA
Distance from station: NNW 8mi, 13km
Updated: Sat, 22-Jul-2017 10:42pm EDT
Mostly cloudy
Mostly cloudy
 Wind from S
Wind: S 5 mph , 7 km/h
Temperature: 73°F , 23°C
Dew Point: 72°F , 22°C
Humidity: 94%
Barometer: 29.81 inHg , 1009.5 hPa
Clouds: Mostly cloudy
Visibility: 10 miles , 16 km
Cloud details: Few Clouds 800 ft
Partly cloudy 2600 ft
Mostly cloudy 6500 ft
Mostly cloudy 14000 ft
Mostly cloudy 21000 ft
2017/07/23 02:42 KIAD 230242Z 19004KT 10SM FEW008 SCT026 BKN065 BKN140 BKN210 23/22 A2981 RMK AO2 RAB06E16 TSE08 OCNL LTG DSNT SE TS DSNT SE P0000 T02280217
KHEF - Manassas Muni, Virginia, USA
Distance from station: SW 9mi, 14km
Updated: Sat, 22-Jul-2017 9:56pm EDT
Mostly cloudy
Mostly cloudy
 Wind from WSW
Wind: WSW 7 mph , 11 km/h
Temperature: 73°F , 23°C
Dew Point: 72°F , 22°C
Humidity: 94%
Barometer: 29.80 inHg , 1009.1 hPa
Clouds: Mostly cloudy
Visibility: 10 miles , 16 km
Cloud details: Few Clouds 6000 ft
Partly cloudy 8000 ft
Mostly cloudy 11000 ft
2017/07/23 01:56 KHEF 230156Z AUTO 24006KT 10SM FEW060 SCT080 BKN110 23/22 A2980 RMK AO2 LTG DSNT NE-S TSB0057E53RAB09E53 SLP099 T02330222 PNO $
KDAA - Fort Belvoir/Dav, Virginia, USA
Distance from station: ESE 15mi, 25km
Updated: Sat, 22-Jul-2017 7:19pm EDT
NOT Current
Few Clouds
Few Clouds
 Wind from calm
Wind: Calm
Temperature: 73°F , 23°C
Dew Point: 70°F , 21°C
Humidity: 89%
Barometer: 29.79 inHg , 1008.8 hPa
Clouds: Few Clouds
Visibility: 10 miles , 16 km
Cloud details: Few Clouds 4600 ft
2017/07/22 23:19 KDAA 222319Z AUTO 00000KT 10SM FEW046 23/21 A2979 RMK AO2 LTG DSNT S RAE19 SLP091
 
KJYO - Leesburg/Godfrey, Virginia, USA
Distance from station: NNW 19mi, 30km
Updated: Sat, 22-Jul-2017 10:35pm EDT
Clear
Clear
 Wind from calm
Wind: Calm
Temperature: 73°F , 23°C
Dew Point: 73°F , 23°C
Humidity: 100%
Barometer: 29.82 inHg , 1009.8 hPa
Clouds: Clear
Visibility: 10 miles , 16 km
2017/07/23 02:35 KJYO 230235Z AUTO 00000KT 10SM CLR 23/23 A2982 RMK AO2 LTG DSNT SE
KDCA - Washington/Natl, Washington D.C./Arlington, VA, USA
Distance from station: E 21mi, 34km
Updated: Sat, 22-Jul-2017 10:49pm EDT
Heavy thunderstorm, Rain, Mist, Overcast
Heavy thunderstorm, Rain, Mist, Overcast
 Wind from SE
Wind: SE 5 mph , 7 km/h
Temperature: 75°F , 24°C
Dew Point: 73°F , 23°C
Humidity: 94%
Barometer: 29.80 inHg , 1009.1 hPa
Summary: Heavy thunderstorm, Rain, Mist
Clouds: Overcast
Visibility: 4 miles , 6 km
Cloud details: Partly cloudy 2700 ft
Mostly cloudy 6000 ft
Overcast 7500 ft
2017/07/23 02:49 KDCA 230249Z 13004KT 4SM R01/3500VP6000FT +TSRA BR SCT027 BKN060CB OVC075 24/23 A2980 RMK AO2 RAE05B33 OCNL LTGICCCCG OHD-E TS OHD-E MOV E P0034 $
KHWY - Warrenton, Virginia, USA
Distance from station: SW 23mi, 37km
Updated: Sat, 22-Jul-2017 10:35pm EDT
Partly cloudy
Partly cloudy
 Wind from calm
Wind: Calm
Temperature: 75°F , 24°C
Dew Point: 72°F , 22°C
Humidity: 89%
Barometer: 29.80 inHg , 1009.1 hPa
Clouds: Partly cloudy
Visibility: 10 miles , 16 km
Cloud details: Partly cloudy 8500 ft
Partly cloudy 12000 ft
2017/07/23 02:35 KHWY 230235Z AUTO 00000KT 10SM SCT085 SCT120 24/22 A2980 RMK AO2 LTG DSNT NE S AND SW T02420218
 
KNYG - Quantico Mcaf, Virginia, USA
Distance from station: SSE 23mi, 37km
Updated: Sat, 22-Jul-2017 10:51pm EDT
Light thunderstorm, Rain, Mostly cloudy
Light thunderstorm, Rain, Mostly cloudy
 Wind from SSE
Wind: SSE 14 mph , 22 km/h
Temperature: 79°F , 26°C
Dew Point: 73°F , 23°C
Humidity: 84%
Barometer: 29.80 inHg , 1009.1 hPa
Summary: Light thunderstorm, Rain
Clouds: Mostly cloudy
Visibility: 10 miles , 16 km
Cloud details: Few Clouds 3000 ft
Partly cloudy 5500 ft
Mostly cloudy 7500 ft
2017/07/23 02:51 KNYG 230251Z AUTO 16012KT 10SM -TSRA FEW030 SCT055 BKN075 26/23 A2980 RMK AO2 WSHFT 0231 RAB06 P0005
KRMN - Stafford Regnl, Virginia, USA
Distance from station: S 29mi, 47km
Updated: Sat, 22-Jul-2017 10:35pm EDT
Mostly cloudy
Mostly cloudy
 Wind from calm
Wind: Calm
Temperature: 73°F , 23°C
Dew Point: 73°F , 23°C
Humidity: 100%
Barometer: 29.86 inHg , 1011.2 hPa
Clouds: Mostly cloudy
Visibility: 10 miles , 16 km
Cloud details: Partly cloudy 1000 ft
Mostly cloudy 6000 ft
Mostly cloudy 7000 ft
2017/07/23 02:35 KRMN 230235Z AUTO 00000KT 10SM SCT010 BKN060 BKN070 23/23 A2986 RMK AO2 LTG DSNT ALQS T02300230
KBCB - Blacksburg, Virginia, USA
Distance from station: SW 191mi, 317km
Updated: Sat, 22-Jul-2017 10:35pm EDT
Partly cloudy
Partly cloudy
 Wind from calm
Wind: Calm
Temperature: 82°F , 28°C
Heat Index: 86°F , 30°C
Dew Point: 70°F , 21°C
Humidity: 66%
Barometer: 29.99 inHg , 1015.6 hPa
Clouds: Partly cloudy
Visibility: 10 miles , 16 km
Cloud details: Partly cloudy 5000 ft
Partly cloudy 6500 ft
Partly cloudy 8000 ft
2017/07/23 02:35 KBCB 230235Z AUTO 00000KT 10SM SCT050 SCT065 SCT080 28/21 A2999 RMK AO2 LTG DSNT N THRU E T02760205
 
KCJR - Culpeper, Virginia, USA
Distance from station: SW 31mi, 50km
Updated: Sat, 22-Jul-2017 10:35pm EDT
Light rain, Partly cloudy
Light rain, Partly cloudy
 Wind from calm
Wind: Calm
Temperature: 75°F , 24°C
Dew Point: 75°F , 24°C
Humidity: 100%
Barometer: 29.80 inHg , 1009.1 hPa
Summary: Light rain
Clouds: Partly cloudy
Visibility: 7 miles , 11 km
Cloud details: Partly cloudy 9000 ft
Partly cloudy 12000 ft
2017/07/23 02:35 KCJR 230235Z AUTO 00000KT 7SM -RA SCT090 SCT120 24/24 A2980 RMK AO2 LTG DSNT E THRU SW T02410239
KEZF - Fredericksb/Shan, Virginia, USA
Distance from station: S 38mi, 61km
Updated: Sat, 22-Jul-2017 10:35pm EDT

 
Temperature: 75°F , 24°C
Dew Point: 75°F , 24°C
Humidity: 100%
Barometer: 29.81 inHg , 1009.5 hPa
2017/07/23 02:35 KEZF 230235Z AUTO 24/24 A2981 RMK AO2 T02370237 PWINO
KCHO - Charlottesville, Virginia, USA
Distance from station: SW 73mi, 118km
Updated: Sat, 22-Jul-2017 10:31pm EDT
Thunderstorm, Partly cloudy
Thunderstorm, Partly cloudy
 Wind from S
Wind: S 7 mph , 11 km/h
Temperature: 75°F , 24°C
Dew Point: 72°F , 22°C
Humidity: 89%
Barometer: 29.85 inHg , 1010.8 hPa
Summary: Thunderstorm
Clouds: Partly cloudy
Visibility: 10 miles , 16 km
Cloud details: Partly cloudy 4200 ft
2017/07/23 02:31 KCHO 230231Z 18006KT 10SM TS SCT042 24/22 A2985 RMK AO2 LTG DSNT ALQDS RAB0158E17 P0005 T02440222
 
KOKV - Winchester Rgnl, Virginia, USA
Distance from station: WNW 45mi, 72km
Updated: Sat, 22-Jul-2017 10:35pm EDT
Light rain, Mostly cloudy
Light rain, Mostly cloudy
 Wind from S
Wind: S 5 mph , 7 km/h
Temperature: 70°F , 21°C
Dew Point: 70°F , 21°C
Humidity: 100%
Barometer: 29.82 inHg , 1009.8 hPa
Summary: Light rain
Clouds: Mostly cloudy
Visibility: 10 miles , 16 km
Cloud details: Partly cloudy 9000 ft
Mostly cloudy 12000 ft
2017/07/23 02:35 KOKV 230235Z AUTO 19004KT 10SM -RA SCT090 BKN120 21/21 A2982 RMK AO2 LTG DSNT S P0002
KSHD - Staunton/Shenand, Virginia, USA
Distance from station: WSW 89mi, 143km
Updated: Sat, 22-Jul-2017 10:35pm EDT
Nearby thunderstorm, Clear
Nearby thunderstorm, Clear
 Wind from SSE
Wind: SSE 5 mph , 7 km/h
Temperature: 75°F , 24°C
Dew Point: 66°F , 19°C
Humidity: 74%
Barometer: 29.89 inHg , 1012.2 hPa
Summary: Nearby Thunderstorm
Clouds: Clear
Visibility: 10 miles , 16 km
2017/07/23 02:35 KSHD 230235Z AUTO 15004KT 10SM VCTS CLR 24/19 A2989 RMK AO2 LTG DSNT SE AND NW T02420186
KRIC - Richmond, Virginia, USA
Distance from station: S 90mi, 145km
Updated: Sat, 22-Jul-2017 9:54pm EDT
Mostly cloudy
Mostly cloudy
 Wind from S
Wind: S 5 mph , 7 km/h
Temperature: 88°F , 31°C
Heat Index: 98°F , 37°C
Dew Point: 75°F , 24°C
Humidity: 66%
Barometer: 29.81 inHg , 1009.5 hPa
Clouds: Mostly cloudy
Visibility: 10 miles , 16 km
Cloud details: Mostly cloudy 6000 ft
Mostly cloudy 30000 ft
2017/07/23 01:54 KRIC 230154Z 18004KT 10SM BKN060 BKN300 31/24 A2981 RMK AO2 SLP096 T03060244
 
KOMH - Orange, Virginia, USA
Distance from station: SW 52mi, 84km
Updated: Sat, 22-Jul-2017 10:35pm EDT

 Wind from SW
Wind: SW 13 mph , 20 km/h, Gust: 17 mph , 28 km/h
Visibility: 7 miles , 11 km
2017/07/23 02:35 KOMH 230235Z AUTO 22011G15KT 7SM +VCTSRA SCT044 SCT065 BKN085 23/22 A2983 RMK AO2 LTG DSNT ALQS P0004
KPHF - Newport News, Virginia, USA
Distance from station: SSE 127mi, 204km
Updated: Sat, 22-Jul-2017 9:54pm EDT
Clear
Clear
 Wind from SSW
Wind: SSW 6 mph , 9 km/h
Temperature: 82°F , 28°C
Heat Index: 89°F , 32°C
Dew Point: 75°F , 24°C
Humidity: 79%
Barometer: 29.83 inHg , 1010.2 hPa
Clouds: Clear
Visibility: 10 miles , 16 km
2017/07/23 01:54 KPHF 230154Z 20005KT 10SM CLR 28/24 A2983 RMK AO2 LTG DSNT NE AND NW SLP100 T02830239
KLYH - Lynchburg, Virginia, USA
Distance from station: SW 142mi, 228km
Updated: Sat, 22-Jul-2017 10:42pm EDT
Nearby thunderstorm, Partly cloudy
Nearby thunderstorm, Partly cloudy
 Wind from SW
Wind: SW 3 mph , 6 km/h
Temperature: 81°F , 27°C
Heat Index: 85°F , 29°C
Dew Point: 70°F , 21°C
Humidity: 70%
Barometer: 29.87 inHg , 1011.5 hPa
Summary: Nearby Thunderstorm
Clouds: Partly cloudy
Visibility: 10 miles , 16 km
Cloud details: Few Clouds 7500 ft
Partly cloudy 9000 ft
2017/07/23 02:42 KLYH 230242Z AUTO 23003KT 10SM VCTS FEW075 SCT090 27/21 A2987 RMK AO2 LTG DSNT W-N RAE03 P0000 T02670206
 
KLUA - Luray, Virginia, USA
Distance from station: W 59mi, 95km
Updated: Sat, 22-Jul-2017 10:35pm EDT
Partly cloudy
Partly cloudy
 Wind from calm
Wind: Calm
Temperature: 73°F , 23°C
Dew Point: 73°F , 23°C
Humidity: 100%
Barometer: 29.85 inHg , 1010.8 hPa
Clouds: Partly cloudy
Visibility: 10 miles , 16 km
Cloud details: Partly cloudy 10000 ft
2017/07/23 02:35 KLUA 230235Z AUTO 00000KT 10SM SCT100 23/23 A2985 RMK AO2 LTG DSNT E THRU S P0001
KLKU - Louisa, Virginia, USA
Distance from station: SSW 63mi, 101km
Updated: Sat, 22-Jul-2017 10:35pm EDT
Partly cloudy
Partly cloudy
 Wind from WNW
Wind: WNW 10 mph , 17 km/h, Gust: 26 mph , 43 km/h
Temperature: 75°F , 24°C
Dew Point: 72°F , 22°C
Humidity: 89%
Barometer: 29.86 inHg , 1011.2 hPa
Clouds: Partly cloudy
Visibility: 10 miles , 16 km
Cloud details: Partly cloudy 4000 ft
Partly cloudy 5000 ft
Partly cloudy 10000 ft
2017/07/23 02:35 KLKU 230235Z AUTO 30009G23KT 10SM SCT040 SCT050 SCT100 24/22 A2986 RMK AO2
KXSA - Tappahannock, Virginia, USA
Distance from station: SSE 72mi, 115km
Updated: Sat, 22-Jul-2017 10:35pm EDT
Clear
Clear
 Wind from ESE
Wind: ESE 6 mph , 9 km/h
Temperature: 77°F , 25°C
Dew Point: 73°F , 23°C
Humidity: 89%
Barometer: 29.81 inHg , 1009.5 hPa
Clouds: Clear
Visibility: 10 miles , 16 km
2017/07/23 02:35 KXSA 230235Z AUTO 12005KT 10SM CLR 25/23 A2981 RMK AO2 LTG DSNT N THRU SE T02500231
 
KOFP - Richmond/Hanover, Virginia, USA
Distance from station: S 77mi, 124km
Updated: Sat, 22-Jul-2017 9:54pm EDT
Partly cloudy
Partly cloudy
 Wind from varies
Wind: varies 5 mph , 7 km/h
Temperature: 79°F , 26°C
Dew Point: 70°F , 21°C
Humidity: 74%
Barometer: 29.83 inHg , 1010.2 hPa
Clouds: Partly cloudy
Visibility: 10 miles , 16 km
Cloud details: Partly cloudy 7500 ft
2017/07/23 01:54 KOFP 230154Z AUTO VRB04KT 10SM SCT075 26/21 A2983 RMK AO2 SLP097 T02610211 $
KVBW - BRIDGEWATER, VIRGINIA, USA
Distance from station: SW 89mi, 144km
Updated: Sat, 22-Jul-2017 10:35pm EDT
Clear
Clear
 Wind from calm
Wind: Calm
Temperature: 70°F , 21°C
Dew Point: 70°F , 21°C
Humidity: 100%
Barometer: 29.86 inHg , 1011.2 hPa
Clouds: Clear
Visibility: 10 miles , 16 km
2017/07/23 02:35 KVBW 230235Z AUTO 00000KT 10SM CLR 21/21 A2986 RMK AO2 T02130212
KFYJ - West Point, Virginia, USA
Distance from station: SSE 97mi, 156km
Updated: Sat, 22-Jul-2017 10:35pm EDT
Partly cloudy
Partly cloudy
 Wind from ESE
Wind: ESE 7 mph , 11 km/h
Temperature: 77°F , 25°C
Dew Point: 73°F , 23°C
Humidity: 89%
Barometer: 29.83 inHg , 1010.2 hPa
Clouds: Partly cloudy
Visibility: 10 miles , 16 km
Cloud details: Partly cloudy 6000 ft
Partly cloudy 8000 ft
Partly cloudy 11000 ft
2017/07/23 02:35 KFYJ 230235Z AUTO 12006KT 10SM SCT060 SCT080 SCT110 25/23 A2983 RMK AO2 T02460231
 
KFCI - Richmond/Chester, Virginia, USA
Distance from station: S 98mi, 158km
Updated: Sat, 22-Jul-2017 9:56pm EDT
Clear
Clear
 Wind from S
Wind: S 6 mph , 9 km/h
Temperature: 86°F , 30°C
Heat Index: 95°F , 35°C
Dew Point: 75°F , 24°C
Humidity: 70%
Barometer: 29.82 inHg , 1009.8 hPa
Clouds: Clear
Visibility: 10 miles , 16 km
2017/07/23 01:56 KFCI 230156Z AUTO 19005KT 10SM CLR 30/24 A2982 RMK AO2 SLP109 T03000244
KTGI - TANGIER ISLAND, VIRGINIA USA
Distance from station: 104mi, 168km
Updated: Sat, 22-Jul-2017 10:32pm EDT
Partly cloudy
Partly cloudy
 Wind from SE
Wind: SE 8 mph , 13 km/h
Temperature: 79°F , 26°C
Dew Point: 73°F , 23°C
Humidity: 84%
Barometer: 29.81 inHg , 1009.5 hPa
Clouds: Partly cloudy
Visibility: 10 miles , 16 km
Cloud details: Partly cloudy 6000 ft
Partly cloudy 7000 ft
Partly cloudy 11000 ft
2017/07/23 02:32 KTGI 230232Z AUTO 13007KT 10SM SCT060 SCT070 SCT110 26/23 A2981 RMK AO1
KPTB - Petersburg, Virginia, USA
Distance from station: S 114mi, 184km
Updated: Sat, 22-Jul-2017 10:35pm EDT
Clear
Clear
 Wind from calm
Wind: Calm
Temperature: 81°F , 27°C
Heat Index: 87°F , 31°C
Dew Point: 75°F , 24°C
Humidity: 84%
Barometer: 29.83 inHg , 1010.2 hPa
Clouds: Clear
Visibility: 10 miles , 16 km
2017/07/23 02:35 KPTB 230235Z AUTO 00000KT 10SM CLR 27/24 A2983 RMK AO2 T02720236
 
KFVX - Farmville, Virginia, USA
Distance from station: SSW 115mi, 185km
Updated: Sat, 22-Jul-2017 10:35pm EDT
Clear
Clear
 Wind from SW
Wind: SW 6 mph , 9 km/h
Temperature: 86°F , 30°C
Heat Index: 89°F , 32°C
Dew Point: 68°F , 20°C
Humidity: 55%
Barometer: 29.81 inHg , 1009.5 hPa
Clouds: Clear
Visibility: 10 miles , 16 km
2017/07/23 02:35 KFVX 230235Z AUTO 22005KT 10SM CLR 30/20 A2981 RMK AO2 LTG DSNT NE AND NW T02960202
KJGG - Williamsburg, Virginia, USA
Distance from station: SSE 116mi, 187km
Updated: Sat, 22-Jul-2017 10:35pm EDT
Clear
Clear
 Wind from S
Wind: S 3 mph , 6 km/h
Temperature: 86°F , 30°C
Heat Index: 95°F , 35°C
Dew Point: 75°F , 24°C
Humidity: 70%
Barometer: 29.83 inHg , 1010.2 hPa
Clouds: Clear
Visibility: 10 miles , 16 km
2017/07/23 02:35 KJGG 230235Z AUTO 19003KT 10SM CLR 30/24 A2983 RMK AO1
KMFV - Melfa/Accomack, Virginia, USA
Distance from station: SE 121mi, 195km
Updated: Sat, 22-Jul-2017 10:35pm EDT
Nearby thunderstorm, Mostly cloudy
Nearby thunderstorm, Mostly cloudy
 Wind from SE
Wind: SE 12 mph , 19 km/h
Temperature: 73°F , 23°C
Dew Point: 72°F , 22°C
Humidity: 94%
Barometer: 29.83 inHg , 1010.2 hPa
Summary: Nearby Thunderstorm
Clouds: Mostly cloudy
Visibility: 10 miles , 16 km
Cloud details: Partly cloudy 1800 ft
Mostly cloudy 4800 ft
Mostly cloudy 6000 ft
2017/07/23 02:35 KMFV 230235Z AUTO 13010KT 10SM VCTS SCT018 BKN048 BKN060 23/22 A2983 RMK AO2 LTG DSNT ALQS P0012 T02310221
 
KWAL - Wallops Island, Virginia, USA
Distance from station: ESE 122mi, 197km
Updated: Sat, 22-Jul-2017 10:45pm EDT
Nearby thunderstorm, Light rain, Mostly cloudy
Nearby thunderstorm, Light rain, Mostly cloudy
 Wind from S
Wind: S 9 mph , 15 km/h
Temperature: 75°F , 24°C
Dew Point: 75°F , 24°C
Humidity: 100%
Barometer: 29.83 inHg , 1010.2 hPa
Summary: Nearby thunderstorm, Light rain
Clouds: Mostly cloudy
Visibility: 10 miles , 16 km
Cloud details: Mostly cloudy 10000 ft
2017/07/23 02:45 KWAL 230245Z AUTO 17008KT 10SM VCTS -RA BKN100 24/24 A2983 RMK AO2 LTG DSNT ALQDS TSE03B18E39 P0001 T02390239
KBKT - BLACKSTONE/FORT, VIRGINIA, USA
Distance from station: SSW 124mi, 200km
Updated: Sat, 22-Jul-2017 10:35pm EDT
Partly cloudy
Partly cloudy
 Wind from SSW
Wind: SSW 8 mph , 13 km/h
Barometer: 29.85 inHg , 1010.8 hPa
Clouds: Partly cloudy
Visibility: 10 miles , 16 km
Cloud details: Partly cloudy 7000 ft
Partly cloudy 8500 ft
2017/07/23 02:35 KBKT 230235Z AUTO 21007KT 10SM SCT070 SCT085 A2985 RMK AO1
KFAF - Ft Eustis/Felker, Virginia, USA
Distance from station: SSE 125mi, 202km
Updated: Sat, 22-Jul-2017 6:58pm EDT
NOT Current
Clear
Clear
 Wind from S
Wind: S 7 mph , 11 km/h
Temperature: 90°F , 32°C
Heat Index: 104°F , 40°C
Dew Point: 77°F , 25°C
Humidity: 67%
Barometer: 29.79 inHg , 1008.8 hPa
Clouds: Clear
Visibility: 10 miles , 16 km
2017/07/22 22:58 KFAF 222258Z AUTO 19006KT 10SM CLR 32/25 A2979 RMK AO2 LTG DSNT E TSE00TSB01E16 SLP091 T03150248
 
KAKQ - Norfolk/Wakefld, Virginia, USA
Distance from station: S 129mi, 207km
Updated: Sat, 22-Jul-2017 9:54pm EDT
Clear
Clear
 Wind from varies
Wind: varies 6 mph , 9 km/h
Temperature: 82°F , 28°C
Heat Index: 89°F , 32°C
Dew Point: 75°F , 24°C
Humidity: 79%
Barometer: 29.83 inHg , 1010.2 hPa
Clouds: Clear
Visibility: 10 miles , 16 km
2017/07/23 01:54 KAKQ 230154Z AUTO VRB05KT 10SM CLR 28/24 A2983 RMK AO2 SLP099 T02830239
KLFI - Langley Afb/Hamp, Virginia, USA
Distance from station: SSE 134mi, 216km
Updated: Sat, 22-Jul-2017 6:58pm EDT
NOT Current
Clear
Clear
 Wind from WSW
Wind: WSW 5 mph , 7 km/h
Temperature: 82°F , 28°C
Heat Index: 90°F , 32°C
Dew Point: 77°F , 25°C
Humidity: 84%
Barometer: 29.80 inHg , 1009.1 hPa
Clouds: Clear
Visibility: 10 miles , 16 km
2017/07/22 22:58 KLFI 222258Z AUTO 24004KT 10SM CLR 28/25 A2980 RMK AO2 PK WND 32027/09 LTG DSNT N-E RAB06E31 TSB2159E42 SLP098 P0007 T02820246 $
KLVL - LAWRENCEVILLE, VIRGINIA, USA
Distance from station: SSW 142mi, 229km
Updated: Sat, 22-Jul-2017 10:35pm EDT
Clear
Clear
 Wind from SSW
Wind: SSW 6 mph , 9 km/h
Temperature: 86°F , 30°C
Heat Index: 95°F , 35°C
Dew Point: 75°F , 24°C
Humidity: 70%
Barometer: 29.85 inHg , 1010.8 hPa
Clouds: Clear
Visibility: 10 miles , 16 km
2017/07/23 02:35 KLVL 230235Z AUTO 21005KT 10SM CLR 30/24 A2985 RMK AO1 T02960237
 
KHSP - Hot Springs/Inga, Virginia, USA
Distance from station: WSW 143mi, 230km
Updated: Sat, 22-Jul-2017 10:30pm EDT
Mostly cloudy
Mostly cloudy
 Wind from W
Wind: W 14 mph , 22 km/h, Gust: 20 mph , 31 km/h
Temperature: 73°F , 23°C
Dew Point: 59°F , 15°C
Humidity: 61%
Barometer: 30.05 inHg , 1017.6 hPa
Clouds: Mostly cloudy
Visibility: 10 miles , 16 km
Cloud details: Partly cloudy 3400 ft
Partly cloudy 4900 ft
Mostly cloudy 5500 ft
2017/07/23 02:30 KHSP 230230Z AUTO 27012G17KT 10SM SCT034 SCT049 BKN055 23/15 A3005 RMK AO2 LTG DSNT ALQS
KNGU - Norfolk Nas/Cham, Virginia, USA
Distance from station: SSE 146mi, 234km
Updated: Sat, 22-Jul-2017 9:59pm EDT
Mostly cloudy
Mostly cloudy
 Wind from S
Wind: S 6 mph , 9 km/h
Temperature: 84°F , 29°C
Heat Index: 90°F , 32°C
Dew Point: 73°F , 23°C
Humidity: 70%
Barometer: 29.85 inHg , 1010.8 hPa
Clouds: Mostly cloudy
Visibility: 9 miles , 14 km
Cloud details: Few Clouds 6500 ft
Few Clouds 15000 ft
Mostly cloudy 30000 ft
2017/07/23 01:59 KNGU 230159Z 19005KT 9SM FEW065 FEW150 BKN300 29/23 A2985 RMK AO2 SLP107 CNS LTGIC DSNT N-NE CB DSNT N-NE T2 SET T02940228 $
KEMV - Emporia, Virginia, USA
Distance from station: S 148mi, 237km
Updated: Sat, 22-Jul-2017 10:35pm EDT
Clear
Clear
 Wind from SSE
Wind: SSE 3 mph , 6 km/h
Temperature: 84°F , 29°C
Heat Index: 90°F , 32°C
Dew Point: 73°F , 23°C
Humidity: 70%
Barometer: 29.85 inHg , 1010.8 hPa
Clouds: Clear
2017/07/23 02:35 KEMV 230235Z AUTO 16003KT CLR 29/23 A2985 RMK AO2 PWINO
 
KORF - Norfolk, Virginia, USA
Distance from station: SSE 148mi, 239km
Updated: Sat, 22-Jul-2017 9:51pm EDT
Few Clouds
Few Clouds
 Wind from S
Wind: S 8 mph , 13 km/h
Temperature: 84°F , 29°C
Heat Index: 90°F , 32°C
Dew Point: 73°F , 23°C
Humidity: 70%
Barometer: 29.84 inHg , 1010.5 hPa
Clouds: Few Clouds
Visibility: 10 miles , 16 km
Cloud details: Few Clouds 6500 ft
2017/07/23 01:51 KORF 230151Z 19007KT 10SM FEW065 29/23 A2984 RMK AO2 SLP103 T02890228
KFKN - Franklin/J B Ros, Virginia, USA
Distance from station: SSE 149mi, 240km
Updated: Sat, 22-Jul-2017 10:14pm EDT
Clear
Clear
 Wind from SSW
Wind: SSW 5 mph , 7 km/h
Barometer: 29.85 inHg , 1010.8 hPa
Clouds: Clear
Visibility: 10 miles , 16 km
2017/07/23 02:14 KFKN 230214Z AUTO 20004KT 10SM CLR A2985 RMK AO2 LTG DSNT NE
KPVG - Norfolk/Hampton, Virginia, USA
Distance from station: SSE 150mi, 242km
Updated: Sat, 22-Jul-2017 10:35pm EDT
Clear
Clear
 Wind from SSW
Wind: SSW 7 mph , 11 km/h
Temperature: 81°F , 27°C
Heat Index: 86°F , 30°C
Dew Point: 73°F , 23°C
Humidity: 79%
Barometer: 29.81 inHg , 1009.5 hPa
Clouds: Clear
Visibility: 10 miles , 16 km
2017/07/23 02:35 KPVG 230235Z AUTO 20006KT 10SM CLR 27/23 A2981 RMK AO1
 
KAVC - South Hill/Meckl, Virginia, USA
Distance from station: SSW 151mi, 243km
Updated: Sat, 22-Jul-2017 10:36pm EDT
Clear
Clear
 Wind from SSW
Wind: SSW 7 mph , 11 km/h
Temperature: 84°F , 29°C
Heat Index: 94°F , 34°C
Dew Point: 77°F , 25°C
Humidity: 79%
Barometer: 29.91 inHg , 1012.9 hPa
Clouds: Clear
Visibility: 10 miles , 16 km
2017/07/23 02:36 KAVC 230236Z AUTO 20006KT 10SM CLR 29/25 A2991 RMK AO2 T02900248
KCXE - CHASE CITY, VIRGINIA, USA
Distance from station: SW 152mi, 245km
Updated: Sat, 22-Jul-2017 10:35pm EDT
Clear
Clear
 Wind from calm
Wind: Calm
Temperature: 84°F , 29°C
Heat Index: 90°F , 32°C
Dew Point: 73°F , 23°C
Humidity: 70%
Barometer: 29.86 inHg , 1011.2 hPa
Clouds: Clear
Visibility: 10 miles , 16 km
2017/07/23 02:35 KCXE 230235Z AUTO 00000KT 10SM CLR 29/23 A2986 RMK AO1 T02900230
KSFQ - Suffolk, Virginia, USA
Distance from station: SSE 154mi, 248km
Updated: Sat, 22-Jul-2017 10:35pm EDT
Clear
Clear
 Wind from S
Wind: S 7 mph , 11 km/h
Temperature: 81°F , 27°C
Heat Index: 88°F , 31°C
Dew Point: 77°F , 25°C
Humidity: 89%
Barometer: 29.85 inHg , 1010.8 hPa
Clouds: Clear
Visibility: 10 miles , 16 km
2017/07/23 02:35 KSFQ 230235Z AUTO 19006KT 10SM CLR 27/25 A2985 RMK AO2 LTG DSNT NE T02660245
 
KNTU - Oceana Nas/Souce, Virginia, USA
Distance from station: SSE 158mi, 254km
Updated: Sat, 22-Jul-2017 9:56pm EDT
Mostly cloudy
Mostly cloudy
 Wind from S
Wind: S 6 mph , 9 km/h
Temperature: 82°F , 28°C
Heat Index: 85°F , 29°C
Dew Point: 68°F , 20°C
Humidity: 62%
Barometer: 29.84 inHg , 1010.5 hPa
Clouds: Mostly cloudy
Visibility: 10 miles , 16 km
Cloud details: Partly cloudy 10000 ft
Mostly cloudy 28000 ft
2017/07/23 01:56 KNTU 230156Z 18005KT 10SM SCT100 BKN280 28/20 A2984 RMK AO2 SLP107 FRQ LTGIC DSNT NW-N CB DSNT NW-N T2 SET T02830200
KCPK - Chesapeake, Virginia, USA
Distance from station: SSE 160mi, 258km
Updated: Sat, 22-Jul-2017 10:35pm EDT
Clear
Clear
 Wind from S
Wind: S 7 mph , 11 km/h
Temperature: 79°F , 26°C
Dew Point: 75°F , 24°C
Humidity: 89%
Barometer: 29.84 inHg , 1010.5 hPa
Clouds: Clear
Visibility: 7 miles , 11 km
2017/07/23 02:35 KCPK 230235Z AUTO 18006KT 7SM CLR 26/24 A2984 RMK AO2 LTG DSNT NE T02630236
KNFE - Fentress Naval, Virginia, USA
Distance from station: SSE 162mi, 261km
Updated: Sat, 22-Jul-2017 9:56pm EDT
Clear
Clear
 Wind from calm
Wind: Calm
Temperature: 82°F , 28°C
Heat Index: 87°F , 31°C
Dew Point: 73°F , 23°C
Humidity: 74%
Barometer: 29.86 inHg , 1011.2 hPa
Clouds: Clear
Visibility: 10 miles , 16 km
2017/07/23 01:56 KNFE 230156Z AUTO 00000KT 10SM CLR 28/23 A2986 RMK AO2 SLP113 T02780228
 
KROA - ROANOKE, VIRGINIA, USA
Distance from station: SW 173mi, 279km
Updated: Sat, 22-Jul-2017 9:54pm EDT
Few Clouds
Few Clouds
 Wind from WSW
Wind: WSW 6 mph , 9 km/h
Temperature: 88°F , 31°C
Heat Index: 95°F , 35°C
Dew Point: 72°F , 22°C
Humidity: 59%
Barometer: 29.90 inHg , 1012.5 hPa
Clouds: Few Clouds
Visibility: 10 miles , 16 km
Cloud details: Few Clouds 7000 ft
2017/07/23 01:54 KROA 230154Z 24005KT 10SM FEW070 31/22 A2990 RMK AO2 SLP107 T03060222
KDAN - DANVILLE, VIRGINIA, USA
Distance from station: SW 187mi, 302km
Updated: Sat, 22-Jul-2017 9:53pm EDT
Clear
Clear
 Wind from WNW
Wind: WNW 5 mph , 7 km/h
Temperature: 79°F , 26°C
Dew Point: 72°F , 22°C
Humidity: 79%
Barometer: 29.88 inHg , 1011.9 hPa
Clouds: Clear
Visibility: 10 miles , 16 km
2017/07/23 01:53 KDAN 230153Z AUTO 29004KT 10SM CLR 26/22 A2988 RMK AO2 SLP106 T02560222
KMTV - MARTINSVILLE, VIRGINIA, USA
Distance from station: SW 207mi, 333km
Updated: Sat, 22-Jul-2017 10:35pm EDT
Clear
Clear
 Wind from calm
Wind: Calm
Temperature: 73°F , 23°C
Dew Point: 70°F , 21°C
Humidity: 89%
Barometer: 29.93 inHg , 1013.5 hPa
Clouds: Clear
Visibility: 10 miles , 16 km
2017/07/23 02:35 KMTV 230235Z AUTO 00000KT 10SM CLR 23/21 A2993 RMK AO2 T02310211
 
KPSK - DUBLIN/NEW RIV, VIRGINIA, USA
Distance from station: SW 212mi, 342km
Updated: Sat, 22-Jul-2017 10:35pm EDT
Clear
Clear
 Wind from WSW
Wind: WSW 8 mph , 13 km/h
Temperature: 82°F , 28°C
Heat Index: 84°F , 29°C
Dew Point: 64°F , 18°C
Humidity: 55%
Barometer: 29.98 inHg , 1015.2 hPa
Clouds: Clear
Visibility: 10 miles , 16 km
2017/07/23 02:35 KPSK 230235Z AUTO 24007KT 10SM CLR 28/18 A2998 RMK AO2 LTG DSNT N T02770175
KHLX - HILLSVILLE/GALAX, VIRGINIA, USA
Distance from station: SW 233mi, 376km
Updated: Sat, 22-Jul-2017 10:30pm EDT
Clear
Clear
 Wind from calm
Wind: Calm
Temperature: 77°F , 25°C
Dew Point: 66°F , 19°C
Humidity: 69%
Barometer: 30.01 inHg , 1016.3 hPa
Clouds: Clear
Visibility: 10 miles , 16 km
2017/07/23 02:30 KHLX 230230Z AUTO 00000KT 10SM CLR 25/19 A3001 RMK AO2 T02470190
KMKJ - MARION / WYTHEVI, VIRGINIA, USA
Distance from station: SW 252mi, 405km
Updated: Sat, 22-Jul-2017 10:35pm EDT
Clear
Clear
 Wind from calm
Wind: Calm
Temperature: 77°F , 25°C
Dew Point: 68°F , 20°C
Humidity: 74%
Barometer: 30.04 inHg , 1017.3 hPa
Clouds: Clear
Visibility: 10 miles , 16 km
2017/07/23 02:35 KMKJ 230235Z AUTO 00000KT 10SM CLR 25/20 A3004 RMK AO2 T02520203
 
KJFZ - RICHLANDS, VIRGINIA, USA
Distance from station: SW 268mi, 431km
Updated: Sat, 22-Jul-2017 10:35pm EDT
Partly cloudy
Partly cloudy
 Wind from WSW
Wind: WSW 9 mph , 15 km/h
Temperature: 81°F , 27°C
Heat Index: 84°F , 29°C
Dew Point: 68°F , 20°C
Humidity: 66%
Barometer: 30.03 inHg , 1016.9 hPa
Clouds: Partly cloudy
Visibility: 10 miles , 16 km
Cloud details: Partly cloudy 4000 ft
Partly cloudy 4600 ft
Partly cloudy 6000 ft
2017/07/23 02:35 KJFZ 230235Z AUTO 24008KT 10SM SCT040 SCT046 SCT060 27/20 A3003 RMK AO2 T02660195
KVJI - ABINGDON, VIRGINIA, USA
Distance from station: SW 292mi, 470km
Updated: Sat, 22-Jul-2017 10:35pm EDT
Clear
Clear
 Wind from calm
Wind: Calm
Temperature: 81°F , 27°C
Heat Index: 85°F , 29°C
Dew Point: 72°F , 22°C
Humidity: 74%
Barometer: 30.00 inHg , 1015.9 hPa
Clouds: Clear
Visibility: 10 miles , 16 km
2017/07/23 02:35 KVJI 230235Z AUTO 00000KT 10SM CLR 27/22 A3000 RMK AO2 T02680215
KLNP - WISE/LONESOME PI, VIRGINIA, USA
Distance from station: WSW 306mi, 492km
Updated: Sat, 22-Jul-2017 10:35pm EDT
Clear
Clear
 Wind from SW
Wind: SW 3 mph , 6 km/h
Temperature: 77°F , 25°C
Dew Point: 68°F , 20°C
Humidity: 74%
Barometer: 30.05 inHg , 1017.6 hPa
Clouds: Clear
Visibility: 10 miles , 16 km
2017/07/23 02:35 KLNP 230235Z AUTO 23003KT 10SM CLR 25/20 A3005 RMK AO2